createdAt,value
2022-12-18T00:01:46.317Z,67.13
2022-12-18T00:04:19.901Z,68.07
2022-12-18T00:06:46.737Z,68.14
2022-12-18T00:09:18.219Z,68.25
2022-12-18T00:11:44.887Z,68.21
2022-12-18T00:14:15.091Z,68.83
2022-12-18T00:16:44.277Z,68.58
2022-12-18T00:19:11.224Z,67.23
2022-12-18T00:21:40.857Z,66.61
2022-12-18T00:24:07.965Z,66.20
2022-12-18T00:26:35.338Z,66.88
2022-12-18T00:29:03.508Z,67.41
2022-12-18T00:31:35.645Z,65.49
2022-12-18T00:34:02.431Z,66.21
2022-12-18T00:36:30.495Z,66.09
2022-12-18T00:38:57.769Z,65.48
2022-12-18T00:41:43.720Z,65.67
2022-12-18T00:44:11.647Z,65.67
2022-12-18T00:46:38.220Z,65.68
2022-12-18T00:49:05.384Z,66.00
2022-12-18T00:51:32.010Z,65.89
2022-12-18T00:54:01.079Z,66.12
2022-12-18T00:56:27.742Z,65.54
2022-12-18T00:58:55.001Z,66.18
2022-12-18T01:01:21.684Z,65.40
2022-12-18T01:03:48.493Z,65.74
2022-12-18T01:06:17.043Z,66.05
2022-12-18T01:08:44.679Z,66.02
2022-12-18T01:11:14.751Z,64.62
2022-12-18T01:13:41.966Z,64.93
2022-12-18T01:16:10.028Z,66.04
2022-12-18T01:18:36.988Z,64.98
2022-12-18T01:21:07.582Z,64.86
2022-12-18T01:23:37.412Z,64.58
2022-12-18T01:26:12.871Z,65.88
2022-12-18T01:28:39.786Z,67.49
2022-12-18T01:31:29.152Z,68.36
2022-12-18T01:33:56.067Z,67.41
2022-12-18T01:36:22.623Z,66.90
2022-12-18T01:38:49.749Z,67.38
2022-12-18T01:41:17.717Z,67.08
2022-12-18T01:43:45.655Z,67.33
2022-12-18T01:46:13.355Z,66.95
2022-12-18T01:48:40.444Z,66.87
2022-12-18T01:51:08.102Z,67.44
2022-12-18T01:53:39.074Z,68.02
2022-12-18T01:56:06.249Z,68.23
2022-12-18T01:58:52.705Z,67.46
2022-12-18T02:01:19.491Z,69.05
2022-12-18T02:03:46.445Z,68.84
2022-12-18T02:06:19.873Z,68.18
2022-12-18T02:08:55.635Z,67.91
2022-12-18T02:11:34.611Z,68.64
2022-12-18T02:14:09.063Z,67.76
2022-12-18T02:16:41.071Z,67.89
2022-12-18T02:19:21.986Z,67.87
2022-12-18T02:21:51.660Z,67.87
2022-12-18T02:24:34.863Z,68.71
2022-12-18T02:27:10.029Z,68.55
2022-12-18T02:29:40.267Z,66.91
2022-12-18T02:32:14.107Z,66.78
2022-12-18T02:34:41.331Z,67.14
2022-12-18T02:37:16.051Z,67.24
2022-12-18T02:39:44.504Z,66.89
2022-12-18T02:42:13.584Z,67.25
2022-12-18T02:44:55.344Z,67.20
2022-12-18T02:47:28.637Z,67.06
2022-12-18T02:50:03.537Z,66.72
2022-12-18T02:52:39.616Z,67.53
2022-12-18T02:55:29.614Z,68.29
2022-12-18T02:58:13.651Z,67.42
2022-12-18T03:00:44.397Z,67.61
2022-12-18T03:03:15.430Z,67.86
2022-12-18T03:05:46.808Z,67.94
2022-12-18T03:08:20.284Z,67.44
2022-12-18T03:11:10.014Z,67.59
2022-12-18T03:13:52.258Z,67.99
2022-12-18T03:16:23.908Z,67.30
2022-12-18T03:18:54.814Z,67.57
2022-12-18T03:21:23.855Z,67.23
2022-12-18T03:23:52.713Z,67.31
2022-12-18T03:26:25.814Z,69.46
2022-12-18T03:29:03.288Z,69.41
2022-12-18T03:31:32.836Z,68.89
2022-12-18T03:34:02.001Z,68.17
2022-12-18T03:36:38.136Z,67.76
2022-12-18T03:39:04.911Z,68.79
2022-12-18T03:41:44.836Z,66.53
2022-12-18T03:44:33.467Z,65.21
2022-12-18T03:47:00.218Z,65.94
2022-12-18T03:49:33.429Z,66.72
2022-12-18T03:52:00.808Z,67.46
2022-12-18T03:54:29.436Z,66.38
2022-12-18T03:57:21.668Z,65.47
2022-12-18T03:59:53.161Z,65.47
2022-12-18T04:02:24.739Z,66.45
2022-12-18T04:04:53.438Z,66.05
2022-12-18T04:07:21.906Z,64.35
2022-12-18T04:09:54.661Z,65.46
2022-12-18T04:12:25.161Z,66.47
2022-12-18T04:14:51.840Z,66.04
2022-12-18T04:17:18.883Z,65.54
2022-12-18T04:19:45.767Z,65.90
2022-12-18T04:22:12.522Z,65.50
2022-12-18T04:24:50.031Z,65.56
2022-12-18T04:27:25.442Z,65.14
2022-12-18T04:29:52.200Z,65.09
2022-12-18T04:32:19.159Z,65.14
2022-12-18T04:34:47.673Z,67.06
2022-12-18T04:37:14.413Z,67.62
2022-12-18T04:39:41.048Z,68.40
2022-12-18T04:42:14.614Z,66.90
2022-12-18T04:44:44.252Z,66.93
2022-12-18T04:47:10.911Z,66.51
2022-12-18T04:49:37.757Z,69.18
2022-12-18T04:52:04.483Z,69.00
2022-12-18T04:54:31.045Z,68.98
2022-12-18T04:57:00.699Z,68.96
2022-12-18T04:59:27.367Z,68.97
2022-12-18T05:01:54.280Z,68.01
2022-12-18T05:04:21.010Z,67.46
2022-12-18T05:06:47.679Z,67.73
2022-12-18T05:09:14.786Z,67.57
2022-12-18T05:11:41.472Z,67.78
2022-12-18T05:14:08.121Z,67.46
2022-12-18T05:16:35.120Z,67.33
2022-12-18T05:19:01.774Z,66.97
2022-12-18T05:21:28.352Z,68.17
2022-12-18T05:23:54.933Z,68.18
2022-12-18T05:26:21.725Z,68.00
2022-12-18T05:28:48.319Z,67.56
2022-12-18T05:31:24.139Z,67.34
2022-12-18T05:33:53.022Z,67.63
2022-12-18T05:36:19.563Z,67.69
2022-12-18T05:38:48.476Z,67.17
2022-12-18T05:41:15.064Z,66.96
2022-12-18T05:43:42.246Z,68.12
2022-12-18T05:46:13.110Z,68.50
2022-12-18T05:48:40.100Z,67.99
2022-12-18T05:51:08.191Z,68.30
2022-12-18T05:53:35.370Z,68.15
2022-12-18T05:56:03.361Z,68.36
2022-12-18T05:58:30.282Z,67.63
2022-12-18T06:00:57.017Z,67.60
2022-12-18T06:03:29.248Z,67.02
2022-12-18T06:05:59.004Z,69.58
2022-12-18T06:08:25.663Z,69.18
2022-12-18T06:10:53.459Z,68.67
2022-12-18T06:13:20.768Z,69.46
2022-12-18T06:15:47.521Z,70.45
2022-12-18T06:18:15.508Z,70.99
2022-12-18T06:20:42.540Z,71.06
2022-12-18T06:23:10.430Z,69.73
2022-12-18T06:25:38.710Z,67.92
2022-12-18T06:28:05.756Z,67.77
2022-12-18T06:30:32.464Z,67.85
2022-12-18T06:32:59.057Z,67.35
2022-12-18T06:35:27.903Z,67.01
2022-12-18T06:37:54.523Z,68.84
2022-12-18T06:40:21.569Z,69.15
2022-12-18T06:42:48.182Z,68.91
2022-12-18T06:45:14.884Z,68.59
2022-12-18T06:47:41.493Z,66.78
2022-12-18T06:50:08.353Z,66.24
2022-12-18T06:52:34.972Z,65.31
2022-12-18T06:55:01.637Z,65.75
2022-12-18T06:57:28.292Z,65.67
2022-12-18T06:59:55.139Z,66.85
2022-12-18T07:02:21.795Z,66.45
2022-12-18T07:04:48.529Z,66.96
2022-12-18T07:07:18.498Z,67.46
2022-12-18T07:09:45.110Z,66.95
2022-12-18T07:12:11.686Z,65.26
2022-12-18T07:14:38.505Z,65.15
2022-12-18T07:17:05.162Z,65.43
2022-12-18T07:19:36.318Z,66.25
2022-12-18T07:22:03.022Z,66.54
2022-12-18T07:24:29.692Z,66.02
2022-12-18T07:26:56.340Z,66.64
2022-12-18T07:29:22.875Z,66.62
2022-12-18T07:31:50.241Z,66.31
2022-12-18T07:34:16.996Z,64.91
2022-12-18T07:36:43.617Z,64.62
2022-12-18T07:39:12.007Z,64.36
2022-12-18T07:41:43.769Z,64.64
2022-12-18T07:44:13.772Z,64.01
2022-12-18T07:46:40.486Z,63.96
2022-12-18T07:49:07.214Z,64.26
2022-12-18T07:51:33.852Z,63.98
2022-12-18T07:54:00.483Z,64.02
2022-12-18T07:56:28.551Z,63.72
2022-12-18T07:58:57.646Z,64.43
2022-12-18T08:01:24.814Z,65.24
2022-12-18T08:03:52.164Z,65.15
2022-12-18T08:06:19.295Z,64.81
2022-12-18T08:08:49.159Z,65.61
2022-12-18T08:11:16.392Z,67.30
2022-12-18T08:13:43.449Z,68.60
2022-12-18T08:16:10.195Z,68.75
2022-12-18T08:18:37.756Z,67.72
2022-12-18T08:21:10.685Z,69.05
2022-12-18T08:23:43.051Z,68.42
2022-12-18T08:26:11.088Z,67.65
2022-12-18T08:28:37.636Z,67.85
2022-12-18T08:31:04.955Z,67.23
2022-12-18T08:33:31.737Z,68.17
2022-12-18T08:35:59.297Z,67.76
2022-12-18T08:38:25.913Z,68.46
2022-12-18T08:41:06.265Z,67.57
2022-12-18T08:43:51.521Z,68.06
2022-12-18T08:46:19.182Z,67.92
2022-12-18T08:48:46.028Z,68.76
2022-12-18T08:51:13.108Z,68.17
2022-12-18T08:53:42.407Z,67.89
2022-12-18T08:56:09.238Z,67.85
2022-12-18T08:58:35.817Z,67.13
2022-12-18T09:01:03.878Z,68.09
2022-12-18T09:03:30.708Z,67.93
2022-12-18T09:05:57.469Z,67.92
2022-12-18T09:08:24.113Z,67.71
2022-12-18T09:10:53.787Z,68.63
2022-12-18T09:13:20.386Z,69.26
2022-12-18T09:15:51.462Z,68.43
2022-12-18T09:18:19.240Z,69.40
2022-12-18T09:20:46.317Z,68.71
2022-12-18T09:23:13.273Z,68.93
2022-12-18T09:25:42.832Z,68.71
2022-12-18T09:28:12.217Z,69.60
2022-12-18T09:30:40.734Z,69.51
2022-12-18T09:33:07.348Z,68.84
2022-12-18T09:35:36.897Z,68.69
2022-12-18T09:38:07.086Z,67.78
2022-12-18T09:40:44.923Z,68.51
2022-12-18T09:43:34.901Z,67.62
2022-12-18T09:46:07.629Z,67.39
2022-12-18T09:48:42.939Z,66.50
2022-12-18T09:51:20.791Z,66.91
2022-12-18T09:53:56.614Z,68.36
2022-12-18T09:56:24.098Z,68.35
2022-12-18T09:58:56.601Z,67.79
2022-12-18T10:01:24.254Z,67.75
2022-12-18T10:03:51.602Z,68.27
2022-12-18T10:06:36.629Z,68.78
2022-12-18T10:09:29.723Z,68.20
2022-12-18T10:12:08.609Z,69.87
2022-12-18T10:14:43.305Z,68.29
2022-12-18T10:17:28.829Z,66.90
2022-12-18T10:20:14.980Z,67.76
2022-12-18T10:22:47.748Z,68.15
2022-12-18T10:25:35.433Z,66.33
2022-12-18T10:28:09.896Z,66.68
2022-12-18T10:30:41.140Z,64.76
2022-12-18T10:33:15.530Z,64.61
2022-12-18T10:35:43.373Z,64.48
2022-12-18T10:38:15.472Z,65.20
2022-12-18T10:40:50.570Z,64.27
2022-12-18T10:43:20.873Z,65.53
2022-12-18T10:45:59.226Z,64.09
2022-12-18T10:48:26.174Z,63.21
2022-12-18T10:53:41.381Z,62.17
2022-12-18T10:56:08.120Z,61.13
2022-12-18T10:58:36.179Z,59.49
2022-12-18T11:01:02.820Z,57.66
2022-12-18T11:03:31.502Z,54.92
2022-12-18T11:06:18.443Z,54.27
2022-12-18T11:08:58.871Z,51.93
2022-12-18T11:11:29.093Z,49.97
2022-12-18T11:14:04.500Z,50.82
2022-12-18T11:16:34.541Z,49.31
2022-12-18T11:19:14.289Z,49.27
2022-12-18T11:21:42.571Z,49.94
2022-12-18T11:24:26.126Z,49.88
2022-12-18T11:26:59.365Z,48.93
2022-12-18T11:29:32.266Z,51.38
2022-12-18T11:32:31.642Z,53.02
2022-12-18T11:35:17.780Z,53.58
2022-12-18T11:37:47.036Z,54.34
2022-12-18T11:40:18.764Z,55.49
2022-12-18T11:43:07.935Z,57.34
2022-12-18T11:45:40.518Z,56.97
2022-12-18T11:48:20.056Z,57.45
2022-12-18T11:50:51.839Z,57.65
2022-12-18T11:53:18.694Z,58.19
2022-12-18T11:55:53.283Z,59.43
2022-12-18T11:58:31.325Z,60.30
2022-12-18T12:01:06.324Z,60.01
2022-12-18T12:03:42.766Z,60.62
2022-12-18T12:06:28.691Z,59.83
2022-12-18T12:09:14.041Z,60.42
2022-12-18T12:11:40.853Z,59.62
2022-12-18T12:14:18.545Z,60.47
2022-12-18T12:16:58.401Z,61.65
2022-12-18T12:19:28.166Z,62.26
2022-12-18T12:22:03.440Z,62.49
2022-12-18T12:24:49.204Z,61.57
2022-12-18T12:27:22.081Z,61.02
2022-12-18T12:29:48.863Z,59.90
2022-12-18T12:32:27.606Z,60.46
2022-12-18T12:35:11.746Z,59.26
2022-12-18T12:37:47.485Z,58.27
2022-12-18T12:40:49.809Z,56.64
2022-12-18T12:43:14.513Z,56.37
2022-12-18T12:45:54.199Z,55.72
2022-12-18T12:48:45.082Z,57.43
2022-12-18T12:51:16.776Z,57.77
2022-12-18T12:53:43.966Z,58.38
2022-12-18T12:56:12.220Z,58.21
2022-12-18T12:58:58.178Z,57.61
2022-12-18T13:01:28.166Z,57.91
2022-12-18T13:04:02.012Z,57.89
2022-12-18T13:06:44.909Z,57.60
2022-12-18T13:09:12.967Z,58.37
2022-12-18T13:12:05.308Z,59.43
2022-12-18T13:14:41.025Z,59.58
2022-12-18T13:17:23.153Z,60.98
2022-12-18T13:19:50.559Z,61.00
2022-12-18T13:22:31.046Z,61.95
2022-12-18T13:24:57.853Z,62.20
2022-12-18T13:27:43.967Z,61.66
2022-12-18T13:30:29.614Z,61.96
2022-12-18T13:33:19.386Z,62.44
2022-12-18T13:35:49.788Z,62.27
2022-12-18T13:38:24.195Z,62.67
2022-12-18T13:40:50.809Z,63.06
2022-12-18T13:43:20.502Z,62.73
2022-12-18T13:46:13.479Z,63.90
2022-12-18T13:48:49.977Z,64.24
2022-12-18T13:51:20.061Z,64.05
2022-12-18T13:53:49.971Z,63.38
2022-12-18T13:56:21.425Z,63.42
2022-12-18T13:59:07.925Z,63.20
2022-12-18T14:01:34.853Z,63.56
2022-12-18T14:04:19.771Z,63.71
2022-12-18T14:06:47.203Z,64.27
2022-12-18T14:09:20.280Z,64.52
2022-12-18T14:11:49.480Z,64.29
2022-12-18T14:14:17.601Z,64.42
2022-12-18T14:16:44.687Z,64.23
2022-12-18T14:19:17.965Z,63.59
2022-12-18T14:21:49.292Z,64.08
2022-12-18T14:24:20.596Z,63.81
2022-12-18T14:26:50.367Z,64.11
2022-12-18T14:29:26.950Z,64.08
2022-12-18T14:32:06.965Z,63.52
2022-12-18T14:34:35.136Z,64.28
2022-12-18T14:37:01.668Z,64.33
2022-12-18T14:39:28.359Z,63.89
2022-12-18T14:41:58.043Z,64.90
2022-12-18T14:44:25.348Z,64.60
2022-12-18T14:46:52.280Z,64.26
2022-12-18T14:49:35.507Z,64.56
2022-12-18T14:52:04.761Z,64.68
2022-12-18T14:54:32.228Z,65.28
2022-12-18T14:57:04.850Z,64.66
2022-12-18T14:59:32.478Z,64.63
2022-12-18T15:02:11.970Z,64.72
2022-12-18T15:04:44.851Z,64.73
2022-12-18T15:07:11.680Z,64.74
2022-12-18T15:09:39.048Z,65.27
2022-12-18T15:12:06.417Z,64.71
2022-12-18T15:14:35.921Z,64.83
2022-12-18T15:17:04.477Z,64.28
2022-12-18T15:19:39.712Z,64.69
2022-12-18T15:22:18.622Z,65.21
2022-12-18T15:24:45.433Z,65.82
2022-12-18T15:27:27.380Z,66.12
2022-12-18T15:30:00.956Z,65.01
2022-12-18T15:32:27.618Z,65.32
2022-12-18T15:35:03.698Z,65.94
2022-12-18T15:37:39.535Z,66.44
2022-12-18T15:40:07.969Z,66.58
2022-12-18T15:42:53.331Z,66.37
2022-12-18T15:45:19.959Z,65.92
2022-12-18T15:47:50.523Z,66.11
2022-12-18T15:50:17.152Z,66.44
2022-12-18T15:52:45.601Z,66.21
2022-12-18T15:55:35.060Z,66.37
2022-12-18T15:58:04.821Z,66.57
2022-12-18T16:00:32.442Z,66.11
2022-12-18T16:03:00.921Z,66.01
2022-12-18T16:05:28.272Z,65.91
2022-12-18T16:07:55.119Z,65.19
2022-12-18T16:10:21.860Z,65.21
2022-12-18T16:12:52.968Z,65.63
2022-12-18T16:15:24.319Z,65.43
2022-12-18T16:17:52.827Z,65.77
2022-12-18T16:20:21.711Z,65.49
2022-12-18T16:22:49.188Z,66.01
2022-12-18T16:25:23.629Z,65.79
2022-12-18T16:27:50.786Z,66.25
2022-12-18T16:30:19.840Z,65.95
2022-12-18T16:32:46.912Z,66.68
2022-12-18T16:35:14.327Z,66.43
2022-12-18T16:37:41.361Z,66.63
2022-12-18T16:40:09.926Z,66.81
2022-12-18T16:42:37.432Z,67.38
2022-12-18T16:45:04.725Z,66.43
2022-12-18T16:47:31.381Z,66.54
2022-12-18T16:49:58.546Z,66.64
2022-12-18T16:52:25.199Z,66.87
2022-12-18T16:54:51.892Z,66.85
2022-12-18T16:57:25.429Z,67.03
2022-12-18T16:59:52.812Z,67.27
2022-12-18T17:02:23.891Z,66.80
2022-12-18T17:04:53.208Z,66.39
2022-12-18T17:07:26.364Z,67.08
2022-12-18T17:09:54.318Z,67.58
2022-12-18T17:12:21.505Z,67.62
2022-12-18T17:14:48.343Z,67.49
2022-12-18T17:17:23.740Z,66.99
2022-12-18T17:19:51.823Z,67.37
2022-12-18T17:22:18.461Z,67.99
2022-12-18T17:24:46.144Z,67.06
2022-12-18T17:27:12.773Z,67.39
2022-12-18T17:29:45.409Z,67.68
2022-12-18T17:32:14.470Z,67.49
2022-12-18T17:34:41.313Z,67.65
2022-12-18T17:37:08.235Z,67.29
2022-12-18T17:39:34.850Z,66.87
2022-12-18T17:42:01.596Z,67.81
2022-12-18T17:44:28.226Z,67.72
2022-12-18T17:46:55.077Z,66.66
2022-12-18T17:49:24.909Z,66.79
2022-12-18T17:51:51.747Z,67.16
2022-12-18T17:54:18.758Z,66.29
2022-12-18T17:56:45.634Z,66.70
2022-12-18T17:59:15.526Z,67.15
2022-12-18T18:01:44.816Z,66.14
2022-12-18T18:04:11.901Z,66.28
2022-12-18T18:06:38.954Z,66.05
2022-12-18T18:09:10.299Z,66.38
2022-12-18T18:12:02.269Z,66.15
2022-12-18T18:14:29.115Z,66.49
2022-12-18T18:16:58.182Z,66.41
2022-12-18T18:19:33.656Z,66.67
2022-12-18T18:22:03.174Z,66.52
2022-12-18T18:24:30.672Z,66.41
2022-12-18T18:26:59.741Z,66.08
2022-12-18T18:29:28.593Z,65.52
2022-12-18T18:31:58.654Z,65.84
2022-12-18T18:34:27.117Z,65.82
2022-12-18T18:36:53.825Z,66.22
2022-12-18T18:39:21.108Z,66.21
2022-12-18T18:41:48.793Z,66.87
2022-12-18T18:44:16.135Z,65.61
2022-12-18T18:46:43.743Z,65.90
2022-12-18T18:49:10.816Z,67.01
2022-12-18T18:51:38.233Z,66.20
2022-12-18T18:54:07.899Z,66.80
2022-12-18T18:57:11.666Z,66.14
2022-12-18T18:59:22.434Z,66.13
2022-12-18T19:01:57.036Z,65.35
2022-12-18T19:04:23.689Z,64.96
2022-12-18T19:06:50.380Z,64.92
2022-12-18T19:09:18.241Z,65.17
2022-12-18T19:12:03.695Z,64.84
2022-12-18T19:14:30.375Z,65.06
2022-12-18T19:16:57.209Z,64.25
2022-12-18T19:19:25.459Z,64.75
2022-12-18T19:21:52.348Z,65.25
2022-12-18T19:24:18.967Z,65.33
2022-12-18T19:26:48.923Z,64.52
2022-12-18T19:29:16.024Z,65.62
2022-12-18T19:31:42.788Z,64.62
2022-12-18T19:34:09.718Z,64.47
2022-12-18T19:36:37.950Z,63.72
2022-12-18T19:39:09.683Z,63.10
2022-12-18T19:41:36.476Z,63.49
2022-12-18T19:44:04.834Z,63.37
2022-12-18T19:46:41.743Z,63.64
2022-12-18T19:49:09.200Z,63.59
2022-12-18T19:51:35.836Z,64.82
2022-12-18T19:54:02.488Z,63.94
2022-12-18T19:56:31.109Z,63.75
2022-12-18T19:58:57.843Z,63.77
2022-12-18T20:01:25.123Z,63.01
2022-12-18T20:03:53.816Z,63.06
2022-12-18T20:06:43.444Z,63.27
2022-12-18T20:09:39.350Z,62.77
2022-12-18T20:12:07.157Z,62.75
2022-12-18T20:14:33.725Z,63.09
2022-12-18T20:17:00.468Z,62.56
2022-12-18T20:19:27.281Z,63.01
2022-12-18T20:21:54.009Z,63.45
2022-12-18T20:24:20.564Z,62.72
2022-12-18T20:26:47.308Z,63.53
2022-12-18T20:29:13.847Z,63.17
2022-12-18T20:31:40.608Z,63.18
2022-12-18T20:34:07.356Z,62.79
2022-12-18T20:36:36.206Z,63.51
2022-12-18T20:39:06.578Z,63.68
2022-12-18T20:41:37.973Z,63.94
2022-12-18T20:44:22.820Z,63.81
2022-12-18T20:46:55.112Z,63.84
2022-12-18T20:49:22.354Z,63.50
2022-12-18T20:51:56.464Z,63.67
2022-12-18T20:54:24.263Z,63.32
2022-12-18T20:56:51.045Z,63.17
2022-12-18T20:59:26.646Z,62.87
2022-12-18T21:01:53.558Z,62.40
2022-12-18T21:04:20.791Z,62.14
2022-12-18T21:06:53.007Z,62.25
2022-12-18T21:09:21.084Z,62.34
2022-12-18T21:12:06.434Z,61.97
2022-12-18T21:14:33.142Z,61.89
2022-12-18T21:17:02.742Z,62.40
2022-12-18T21:19:29.530Z,61.74
2022-12-18T21:21:57.100Z,62.51
2022-12-18T21:24:24.618Z,62.53
2022-12-18T21:26:51.370Z,62.81
2022-12-18T21:29:20.246Z,62.43
2022-12-18T21:31:47.364Z,62.82
2022-12-18T21:34:18.353Z,62.93
2022-12-18T21:36:48.528Z,63.57
2022-12-18T21:39:16.010Z,63.92
2022-12-18T21:42:01.581Z,64.39
2022-12-18T21:44:28.875Z,64.02
2022-12-18T21:47:01.541Z,64.65
2022-12-18T21:49:33.464Z,64.31
2022-12-18T21:52:01.230Z,63.71
2022-12-18T21:54:28.828Z,64.05
2022-12-18T21:56:55.519Z,63.67
2022-12-18T21:59:25.270Z,63.37
2022-12-18T22:01:52.741Z,63.48
2022-12-18T22:04:19.771Z,62.43
2022-12-18T22:06:53.545Z,63.07
2022-12-18T22:09:23.555Z,62.45
2022-12-18T22:11:50.790Z,63.28
2022-12-18T22:14:17.649Z,63.69
2022-12-18T22:16:44.357Z,63.72
2022-12-18T22:19:15.790Z,64.00
2022-12-18T22:21:43.729Z,63.88
2022-12-18T22:24:16.782Z,63.91
2022-12-18T22:26:43.981Z,64.09
2022-12-18T22:29:36.521Z,64.12
2022-12-18T22:32:04.148Z,62.40
2022-12-18T22:34:36.340Z,63.15
2022-12-18T22:37:03.527Z,62.05
2022-12-18T22:39:30.601Z,62.58
2022-12-18T22:41:58.218Z,63.22
2022-12-18T22:44:27.993Z,63.02
2022-12-18T22:47:05.397Z,63.20
2022-12-18T22:49:35.206Z,62.44
2022-12-18T22:52:02.470Z,63.14
2022-12-18T22:54:29.049Z,63.01
2022-12-18T22:56:55.654Z,62.69
2022-12-18T22:59:23.176Z,63.46
2022-12-18T23:01:50.587Z,63.94
2022-12-18T23:04:20.006Z,64.18
2022-12-18T23:06:47.550Z,64.31
2022-12-18T23:09:16.174Z,64.29
2022-12-18T23:11:45.148Z,64.12
2022-12-18T23:14:11.957Z,63.52
2022-12-18T23:16:38.628Z,63.76
2022-12-18T23:19:05.856Z,63.96
2022-12-18T23:21:32.414Z,63.75
2022-12-18T23:24:00.604Z,63.85
2022-12-18T23:26:27.253Z,63.24
2022-12-18T23:28:56.909Z,63.95
2022-12-18T23:31:25.055Z,64.41
2022-12-18T23:33:52.219Z,63.75
2022-12-18T23:36:19.543Z,64.47
2022-12-18T23:38:56.430Z,64.08
2022-12-18T23:41:24.658Z,64.31
2022-12-18T23:43:51.600Z,64.87
2022-12-18T23:46:18.335Z,65.14
2022-12-18T23:48:45.206Z,65.51
2022-12-18T23:51:12.633Z,64.83
2022-12-18T23:53:42.175Z,64.16
2022-12-18T23:56:09.844Z,63.23
2022-12-18T23:58:37.881Z,63.51
